sensor_id;sensor_type;location;lat;lon;timestamp;pressure;altitude;pressure_sealevel;temperature;humidity
76311;BME280;65120;59.304;18.294;2023-05-07T00:00:36;103127.81;;;1.53;55.40
76311;BME280;65120;59.304;18.294;2023-05-07T00:03:03;103123.41;;;1.51;55.99
76311;BME280;65120;59.304;18.294;2023-05-07T00:05:30;103125.06;;;1.50;55.47
76311;BME280;65120;59.304;18.294;2023-05-07T00:07:59;103123.16;;;1.46;55.43
76311;BME280;65120;59.304;18.294;2023-05-07T00:10:26;103122.97;;;1.43;55.45
76311;BME280;65120;59.304;18.294;2023-05-07T00:12:52;103119.41;;;1.41;55.92
76311;BME280;65120;59.304;18.294;2023-05-07T00:15:20;103125.38;;;1.40;55.97
76311;BME280;65120;59.304;18.294;2023-05-07T00:17:46;103121.72;;;1.37;56.35
76311;BME280;65120;59.304;18.294;2023-05-07T00:20:13;103134.53;;;1.35;56.12
76311;BME280;65120;59.304;18.294;2023-05-07T00:22:41;103129.09;;;1.30;56.33
76311;BME280;65120;59.304;18.294;2023-05-07T00:25:09;103126.53;;;1.30;55.70
76311;BME280;65120;59.304;18.294;2023-05-07T00:27:36;103122.00;;;1.26;55.97
76311;BME280;65120;59.304;18.294;2023-05-07T00:30:04;103121.13;;;1.26;56.08
76311;BME280;65120;59.304;18.294;2023-05-07T00:32:31;103136.41;;;1.23;56.56
76311;BME280;65120;59.304;18.294;2023-05-07T00:34:58;103120.78;;;1.20;55.86
76311;BME280;65120;59.304;18.294;2023-05-07T00:37:25;103127.53;;;1.18;56.23
76311;BME280;65120;59.304;18.294;2023-05-07T00:39:52;103125.66;;;1.15;56.47
76311;BME280;65120;59.304;18.294;2023-05-07T00:42:20;103123.78;;;1.12;56.94
76311;BME280;65120;59.304;18.294;2023-05-07T00:44:47;103128.59;;;1.06;56.89
76311;BME280;65120;59.304;18.294;2023-05-07T00:47:14;103135.59;;;1.09;56.64
76311;BME280;65120;59.304;18.294;2023-05-07T00:49:42;103138.19;;;1.09;56.42
76311;BME280;65120;59.304;18.294;2023-05-07T00:52:13;103137.19;;;1.07;56.79
76311;BME280;65120;59.304;18.294;2023-05-07T00:54:42;103133.63;;;1.05;56.92
76311;BME280;65120;59.304;18.294;2023-05-07T00:57:10;103134.44;;;1.04;57.31
76311;BME280;65120;59.304;18.294;2023-05-07T00:59:38;103140.28;;;1.01;57.15
76311;BME280;65120;59.304;18.294;2023-05-07T01:02:06;103141.88;;;0.99;56.74
76311;BME280;65120;59.304;18.294;2023-05-07T01:04:33;103142.69;;;0.98;57.67
76311;BME280;65120;59.304;18.294;2023-05-07T01:07:01;103139.22;;;0.98;56.51
76311;BME280;65120;59.304;18.294;2023-05-07T01:09:28;103133.03;;;0.94;57.05
76311;BME280;65120;59.304;18.294;2023-05-07T01:11:56;103137.25;;;0.94;56.95
76311;BME280;65120;59.304;18.294;2023-05-07T01:14:24;103134.63;;;0.92;57.26
76311;BME280;65120;59.304;18.294;2023-05-07T01:16:53;103137.97;;;0.91;57.03
76311;BME280;65120;59.304;18.294;2023-05-07T01:19:20;103133.56;;;0.88;57.93
76311;BME280;65120;59.304;18.294;2023-05-07T01:21:48;103136.03;;;0.87;57.75
76311;BME280;65120;59.304;18.294;2023-05-07T01:24:17;103130.88;;;0.87;57.40
76311;BME280;65120;59.304;18.294;2023-05-07T01:26:44;103129.88;;;0.85;57.38
76311;BME280;65120;59.304;18.294;2023-05-07T01:29:11;103134.09;;;0.83;57.07
76311;BME280;65120;59.304;18.294;2023-05-07T01:31:40;103135.66;;;0.81;57.14
76311;BME280;65120;59.304;18.294;2023-05-07T01:34:11;103137.34;;;0.80;57.54
76311;BME280;65120;59.304;18.294;2023-05-07T01:36:40;103136.38;;;0.78;57.74
76311;BME280;65120;59.304;18.294;2023-05-07T01:39:10;103137.19;;;0.77;58.13
76311;BME280;65120;59.304;18.294;2023-05-07T01:41:39;103140.44;;;0.75;58.33
76311;BME280;65120;59.304;18.294;2023-05-07T01:44:06;103144.72;;;0.74;57.42
76311;BME280;65120;59.304;18.294;2023-05-07T01:46:34;103146.28;;;0.72;57.77
76311;BME280;65120;59.304;18.294;2023-05-07T01:49:01;103141.94;;;0.71;57.86
76311;BME280;65120;59.304;18.294;2023-05-07T01:51:28;103147.00;;;0.70;58.45
76311;BME280;65120;59.304;18.294;2023-05-07T01:53:56;103150.38;;;0.69;57.75
76311;BME280;65120;59.304;18.294;2023-05-07T01:56:24;103150.38;;;0.69;58.02
76311;BME280;65120;59.304;18.294;2023-05-07T01:58:53;103157.09;;;0.66;58.26
76311;BME280;65120;59.304;18.294;2023-05-07T02:01:20;103150.19;;;0.65;58.36
76311;BME280;65120;59.304;18.294;2023-05-07T02:03:47;103149.22;;;0.63;58.22
76311;BME280;65120;59.304;18.294;2023-05-07T02:06:14;103154.34;;;0.63;58.79
76311;BME280;65120;59.304;18.294;2023-05-07T02:08:41;103161.09;;;0.61;58.35
76311;BME280;65120;59.304;18.294;2023-05-07T02:11:07;103149.81;;;0.59;58.27
76311;BME280;65120;59.304;18.294;2023-05-07T02:13:34;103153.19;;;0.58;58.73
76311;BME280;65120;59.304;18.294;2023-05-07T02:16:03;103154.88;;;0.58;58.62
76311;BME280;65120;59.304;18.294;2023-05-07T02:18:30;103149.81;;;0.59;58.75
76311;BME280;65120;59.304;18.294;2023-05-07T02:20:57;103153.19;;;0.58;58.40
76311;BME280;65120;59.304;18.294;2023-05-07T02:23:24;103160.91;;;0.58;58.69
76311;BME280;65120;59.304;18.294;2023-05-07T02:25:51;103154.00;;;0.57;58.43
76311;BME280;65120;59.304;18.294;2023-05-07T02:28:18;103163.28;;;0.55;58.85
76311;BME280;65120;59.304;18.294;2023-05-07T02:30:45;103159.84;;;0.55;59.23
76311;BME280;65120;59.304;18.294;2023-05-07T02:33:13;103160.59;;;0.54;59.12
76311;BME280;65120;59.304;18.294;2023-05-07T02:35:40;103160.59;;;0.54;58.80
76311;BME280;65120;59.304;18.294;2023-05-07T02:38:07;103158.84;;;0.53;58.59
76311;BME280;65120;59.304;18.294;2023-05-07T02:40:36;103164.88;;;0.53;59.39
76311;BME280;65120;59.304;18.294;2023-05-07T02:43:04;103159.53;;;0.50;58.93
76311;BME280;65120;59.304;18.294;2023-05-07T02:45:32;103159.66;;;0.52;59.12
76311;BME280;65120;59.304;18.294;2023-05-07T02:47:59;103164.69;;;0.50;59.56
76311;BME280;65120;59.304;18.294;2023-05-07T02:50:27;103162.91;;;0.49;59.40
76311;BME280;65120;59.304;18.294;2023-05-07T02:52:55;103168.84;;;0.48;59.11
76311;BME280;65120;59.304;18.294;2023-05-07T02:55:21;103155.97;;;0.48;59.34
76311;BME280;65120;59.304;18.294;2023-05-07T02:57:48;103167.06;;;0.47;59.54
76311;BME280;65120;59.304;18.294;2023-05-07T03:00:17;103160.16;;;0.46;59.46
76311;BME280;65120;59.304;18.294;2023-05-07T03:02:45;103161.91;;;0.47;59.46
76311;BME280;65120;59.304;18.294;2023-05-07T03:05:12;103162.63;;;0.44;59.27
76311;BME280;65120;59.304;18.294;2023-05-07T03:07:41;103164.31;;;0.44;59.36
76311;BME280;65120;59.304;18.294;2023-05-07T03:10:10;103163.44;;;0.43;59.81
76311;BME280;65120;59.304;18.294;2023-05-07T03:12:37;103157.41;;;0.43;60.14
76311;BME280;65120;59.304;18.294;2023-05-07T03:15:05;103161.63;;;0.42;60.03
76311;BME280;65120;59.304;18.294;2023-05-07T03:17:32;103151.28;;;0.41;59.67
76311;BME280;65120;59.304;18.294;2023-05-07T03:19:59;103157.41;;;0.43;59.44
76311;BME280;65120;59.304;18.294;2023-05-07T03:22:26;103148.69;;;0.41;59.74
76311;BME280;65120;59.304;18.294;2023-05-07T03:24:54;103161.63;;;0.42;60.14
76311;BME280;65120;59.304;18.294;2023-05-07T03:27:21;103152.25;;;0.43;60.30
76311;BME280;65120;59.304;18.294;2023-05-07T03:29:48;103160.94;;;0.45;59.80
76311;BME280;65120;59.304;18.294;2023-05-07T03:32:15;103154.91;;;0.44;60.51
76311;BME280;65120;59.304;18.294;2023-05-07T03:34:42;103156.69;;;0.45;60.71
76311;BME280;65120;59.304;18.294;2023-05-07T03:37:08;103154.22;;;0.47;59.98
76311;BME280;65120;59.304;18.294;2023-05-07T03:39:35;103156.78;;;0.47;60.58
76311;BME280;65120;59.304;18.294;2023-05-07T03:42:04;103163.69;;;0.48;60.61
76311;BME280;65120;59.304;18.294;2023-05-07T03:44:31;103163.09;;;0.52;60.87
76311;BME280;65120;59.304;18.294;2023-05-07T03:46:57;103162.28;;;0.53;60.53
76311;BME280;65120;59.304;18.294;2023-05-07T03:49:24;103170.13;;;0.55;60.60
76311;BME280;65120;59.304;18.294;2023-05-07T03:51:51;103165.03;;;0.56;60.51
76311;BME280;65120;59.304;18.294;2023-05-07T03:54:18;103171.19;;;0.58;61.26
76311;BME280;65120;59.304;18.294;2023-05-07T03:56:45;103172.19;;;0.60;61.40
76311;BME280;65120;59.304;18.294;2023-05-07T03:59:13;103179.19;;;0.63;61.47
76311;BME280;65120;59.304;18.294;2023-05-07T04:01:40;103177.69;;;0.66;61.98
76311;BME280;65120;59.304;18.294;2023-05-07T04:04:07;103173.53;;;0.69;62.03
76311;BME280;65120;59.304;18.294;2023-05-07T04:06:34;103178.94;;;0.73;61.77
76311;BME280;65120;59.304;18.294;2023-05-07T04:09:01;103181.00;;;0.79;62.37
76311;BME280;65120;59.304;18.294;2023-05-07T04:11:28;103182.97;;;0.83;62.19
76311;BME280;65120;59.304;18.294;2023-05-07T04:13:55;103178.19;;;0.89;62.32
76311;BME280;65120;59.304;18.294;2023-05-07T04:16:23;103175.09;;;0.95;63.09
76311;BME280;65120;59.304;18.294;2023-05-07T04:18:50;103184.16;;;1.03;62.95
76311;BME280;65120;59.304;18.294;2023-05-07T04:21:18;103177.75;;;1.11;63.60
76311;BME280;65120;59.304;18.294;2023-05-07T04:23:45;103180.88;;;1.20;63.73
76311;BME280;65120;59.304;18.294;2023-05-07T04:26:13;103184.09;;;1.31;63.66
76311;BME280;65120;59.304;18.294;2023-05-07T04:28:40;103179.53;;;1.42;63.26
76311;BME280;65120;59.304;18.294;2023-05-07T04:31:07;103181.91;;;1.53;64.28
76311;BME280;65120;59.304;18.294;2023-05-07T04:33:36;103178.38;;;1.66;64.39
76311;BME280;65120;59.304;18.294;2023-05-07T04:36:03;103186.06;;;1.81;64.32
76311;BME280;65120;59.304;18.294;2023-05-07T04:38:31;103181.69;;;1.95;64.36
76311;BME280;65120;59.304;18.294;2023-05-07T04:41:02;103188.66;;;2.12;64.74
76311;BME280;65120;59.304;18.294;2023-05-07T04:43:30;103187.00;;;2.29;65.03
76311;BME280;65120;59.304;18.294;2023-05-07T04:45:57;103186.94;;;2.44;64.28
76311;BME280;65120;59.304;18.294;2023-05-07T04:48:24;103192.28;;;2.63;65.38
76311;BME280;65120;59.304;18.294;2023-05-07T04:50:53;103191.56;;;2.82;65.23
76311;BME280;65120;59.304;18.294;2023-05-07T04:53:20;103186.44;;;3.00;64.97
76311;BME280;65120;59.304;18.294;2023-05-07T04:55:47;103190.03;;;3.20;65.01
76311;BME280;65120;59.304;18.294;2023-05-07T04:58:14;103193.53;;;3.38;65.08
76311;BME280;65120;59.304;18.294;2023-05-07T05:00:42;103203.19;;;3.59;64.77
76311;BME280;65120;59.304;18.294;2023-05-07T05:03:09;103197.13;;;3.76;64.16
76311;BME280;65120;59.304;18.294;2023-05-07T05:05:36;103200.53;;;3.93;64.38
76311;BME280;65120;59.304;18.294;2023-05-07T05:08:05;103192.75;;;4.11;64.08
76311;BME280;65120;59.304;18.294;2023-05-07T05:10:32;103192.69;;;4.29;64.21
76311;BME280;65120;59.304;18.294;2023-05-07T05:12:58;103191.03;;;4.49;63.69
76311;BME280;65120;59.304;18.294;2023-05-07T05:15:25;103186.56;;;4.64;63.46
76311;BME280;65120;59.304;18.294;2023-05-07T05:17:52;103192.41;;;4.80;63.49
76311;BME280;65120;59.304;18.294;2023-05-07T05:20:19;103195.66;;;4.95;62.59
76311;BME280;65120;59.304;18.294;2023-05-07T05:22:46;103204.03;;;5.09;62.73
76311;BME280;65120;59.304;18.294;2023-05-07T05:25:14;103192.50;;;5.22;62.91
76311;BME280;65120;59.304;18.294;2023-05-07T05:27:41;103198.19;;;5.34;62.22
76311;BME280;65120;59.304;18.294;2023-05-07T05:30:09;103201.28;;;5.46;62.14
76311;BME280;65120;59.304;18.294;2023-05-07T05:32:36;103195.66;;;5.56;61.87
76311;BME280;65120;59.304;18.294;2023-05-07T05:35:03;103195.16;;;5.65;61.83
76311;BME280;65120;59.304;18.294;2023-05-07T05:37:31;103193.00;;;5.76;61.75
76311;BME280;65120;59.304;18.294;2023-05-07T05:39:57;103195.94;;;5.85;61.51
76311;BME280;65120;59.304;18.294;2023-05-07T05:42:26;103191.06;;;5.93;61.17
76311;BME280;65120;59.304;18.294;2023-05-07T05:44:53;103193.94;;;5.99;60.99
76311;BME280;65120;59.304;18.294;2023-05-07T05:47:20;103199.44;;;6.06;60.57
76311;BME280;65120;59.304;18.294;2023-05-07T05:49:46;103196.13;;;6.11;60.45
76311;BME280;65120;59.304;18.294;2023-05-07T05:52:13;103196.34;;;6.17;60.28
76311;BME280;65120;59.304;18.294;2023-05-07T05:54:42;103197.31;;;6.19;60.13
76311;BME280;65120;59.304;18.294;2023-05-07T05:57:09;103202.63;;;6.22;60.01
76311;BME280;65120;59.304;18.294;2023-05-07T05:59:37;103194.94;;;6.25;59.99
76311;BME280;65120;59.304;18.294;2023-05-07T06:02:04;103195.06;;;6.28;59.79
76311;BME280;65120;59.304;18.294;2023-05-07T06:04:31;103196.97;;;6.32;59.51
76311;BME280;65120;59.304;18.294;2023-05-07T06:06:58;103198.84;;;6.36;59.34
76311;BME280;65120;59.304;18.294;2023-05-07T06:09:25;103193.75;;;6.39;59.36
76311;BME280;65120;59.304;18.294;2023-05-07T06:11:52;103195.66;;;6.43;59.25
76311;BME280;65120;59.304;18.294;2023-05-07T06:14:19;103194.84;;;6.46;59.17
76311;BME280;65120;59.304;18.294;2023-05-07T06:16:47;103195.03;;;6.50;59.00
76311;BME280;65120;59.304;18.294;2023-05-07T06:19:14;103191.69;;;6.53;58.87
76311;BME280;65120;59.304;18.294;2023-05-07T06:21:43;103191.78;;;6.56;58.84
76311;BME280;65120;59.304;18.294;2023-05-07T06:24:10;103191.91;;;6.59;58.72
76311;BME280;65120;59.304;18.294;2023-05-07T06:26:37;103192.88;;;6.63;58.35
76311;BME280;65120;59.304;18.294;2023-05-07T06:29:04;103184.22;;;6.62;58.41
76311;BME280;65120;59.304;18.294;2023-05-07T06:31:31;103198.38;;;6.70;58.33
76311;BME280;65120;59.304;18.294;2023-05-07T06:33:59;103198.53;;;6.75;58.09
76311;BME280;65120;59.304;18.294;2023-05-07T06:36:27;103195.09;;;6.76;58.04
76311;BME280;65120;59.304;18.294;2023-05-07T06:38:55;103199.56;;;6.80;57.87
76311;BME280;65120;59.304;18.294;2023-05-07T06:41:21;103193.69;;;6.84;57.71
76311;BME280;65120;59.304;18.294;2023-05-07T06:43:48;103204.16;;;6.87;57.80
76311;BME280;65120;59.304;18.294;2023-05-07T06:46:16;103195.59;;;6.90;57.65
76311;BME280;65120;59.304;18.294;2023-05-07T06:48:42;103199.19;;;6.93;57.76
76311;BME280;65120;59.304;18.294;2023-05-07T06:51:11;103194.09;;;6.96;57.33
76311;BME280;65120;59.304;18.294;2023-05-07T06:53:38;103196.81;;;6.99;57.69
76311;BME280;65120;59.304;18.294;2023-05-07T06:56:05;103194.56;;;7.09;57.44
76311;BME280;65120;59.304;18.294;2023-05-07T06:58:32;103198.22;;;7.15;57.09
76311;BME280;65120;59.304;18.294;2023-05-07T07:00:59;103195.00;;;7.22;57.03
76311;BME280;65120;59.304;18.294;2023-05-07T07:03:26;103188.41;;;7.32;56.93
76311;BME280;65120;59.304;18.294;2023-05-07T07:05:54;103188.88;;;7.46;56.68
76311;BME280;65120;59.304;18.294;2023-05-07T07:08:22;103187.53;;;7.59;56.11
76311;BME280;65120;59.304;18.294;2023-05-07T07:10:49;103194.91;;;7.72;56.21
76311;BME280;65120;59.304;18.294;2023-05-07T07:13:16;103194.34;;;7.82;55.86
76311;BME280;65120;59.304;18.294;2023-05-07T07:15:43;103195.69;;;7.97;55.77
76311;BME280;65120;59.304;18.294;2023-05-07T07:18:10;103185.66;;;8.09;55.11
76311;BME280;65120;59.304;18.294;2023-05-07T07:20:37;103186.03;;;8.21;55.36
76311;BME280;65120;59.304;18.294;2023-05-07T07:23:05;103193.47;;;8.38;55.42
76311;BME280;65120;59.304;18.294;2023-05-07T07:25:33;103194.72;;;8.50;54.95
76311;BME280;65120;59.304;18.294;2023-05-07T07:28:00;103183.75;;;8.62;54.06
76311;BME280;65120;59.304;18.294;2023-05-07T07:30:27;103185.13;;;8.80;53.93
76311;BME280;65120;59.304;18.294;2023-05-07T07:32:54;103182.06;;;8.94;53.22
76311;BME280;65120;59.304;18.294;2023-05-07T07:35:27;103183.25;;;9.07;52.79
76311;BME280;65120;59.304;18.294;2023-05-07T07:37:54;103183.69;;;9.24;52.17
76311;BME280;65120;59.304;18.294;2023-05-07T07:40:21;103181.50;;;9.41;51.99
76311;BME280;65120;59.304;18.294;2023-05-07T07:42:49;103182.78;;;9.57;50.76
76311;BME280;65120;59.304;18.294;2023-05-07T07:45:16;103179.59;;;9.68;50.60
76311;BME280;65120;59.304;18.294;2023-05-07T07:47:43;103174.72;;;9.84;50.86
76311;BME280;65120;59.304;18.294;2023-05-07T07:50:10;103179.38;;;9.99;50.12
76311;BME280;65120;59.304;18.294;2023-05-07T07:52:37;103179.69;;;10.12;50.04
76311;BME280;65120;59.304;18.294;2023-05-07T07:55:05;103169.53;;;10.25;49.50
76311;BME280;65120;59.304;18.294;2023-05-07T07:57:33;103171.56;;;10.38;49.09
76311;BME280;65120;59.304;18.294;2023-05-07T08:00:01;103167.44;;;10.49;48.35
76311;BME280;65120;59.304;18.294;2023-05-07T08:02:28;103164.13;;;10.58;49.07
76311;BME280;65120;59.304;18.294;2023-05-07T08:04:55;103166.03;;;10.67;48.36
76311;BME280;65120;59.304;18.294;2023-05-07T08:07:22;103158.31;;;10.71;48.33
76311;BME280;65120;59.304;18.294;2023-05-07T08:09:49;103152.25;;;10.74;47.80
76311;BME280;65120;59.304;18.294;2023-05-07T08:12:16;103164.63;;;10.84;47.28
76311;BME280;65120;59.304;18.294;2023-05-07T08:14:43;103159.53;;;10.90;47.54
76311;BME280;65120;59.304;18.294;2023-05-07T08:17:11;103164.88;;;10.96;47.53
76311;BME280;65120;59.304;18.294;2023-05-07T08:19:41;103159.69;;;10.99;47.13
76311;BME280;65120;59.304;18.294;2023-05-07T08:22:08;103169.31;;;11.00;46.31
76311;BME280;65120;59.304;18.294;2023-05-07T08:24:34;103169.28;;;10.99;45.66
76311;BME280;65120;59.304;18.294;2023-05-07T08:27:01;103163.25;;;11.01;46.25
76311;BME280;65120;59.304;18.294;2023-05-07T08:29:28;103158.88;;;11.03;46.15
76311;BME280;65120;59.304;18.294;2023-05-07T08:31:55;103158.09;;;11.08;45.69
76311;BME280;65120;59.304;18.294;2023-05-07T08:34:23;103169.44;;;11.08;45.54
76311;BME280;65120;59.304;18.294;2023-05-07T08:36:50;103166.00;;;11.12;45.31
76311;BME280;65120;59.304;18.294;2023-05-07T08:39:17;103163.41;;;11.12;44.99
76311;BME280;65120;59.304;18.294;2023-05-07T08:41:44;103162.56;;;11.15;44.80
76311;BME280;65120;59.304;18.294;2023-05-07T08:44:13;103162.63;;;11.16;44.26
76311;BME280;65120;59.304;18.294;2023-05-07T08:46:41;103157.41;;;11.18;43.90
76311;BME280;65120;59.304;18.294;2023-05-07T08:49:08;103160.06;;;11.19;43.61
76311;BME280;65120;59.304;18.294;2023-05-07T08:51:37;103162.72;;;11.22;43.20
76311;BME280;65120;59.304;18.294;2023-05-07T08:54:05;103153.06;;;11.20;42.95
76311;BME280;65120;59.304;18.294;2023-05-07T08:56:32;103153.91;;;11.17;42.81
76311;BME280;65120;59.304;18.294;2023-05-07T08:58:59;103162.63;;;11.16;43.06
76311;BME280;65120;59.304;18.294;2023-05-07T09:01:26;103158.22;;;11.15;42.90
76311;BME280;65120;59.304;18.294;2023-05-07T09:03:53;103157.38;;;11.16;42.85
76311;BME280;65120;59.304;18.294;2023-05-07T09:06:20;103155.59;;;11.14;42.40
76311;BME280;65120;59.304;18.294;2023-05-07T09:08:53;103154.72;;;11.15;42.79
76311;BME280;65120;59.304;18.294;2023-05-07T09:11:21;103155.66;;;11.18;42.70
76311;BME280;65120;59.304;18.294;2023-05-07T09:13:49;103158.31;;;11.20;42.87
76311;BME280;65120;59.304;18.294;2023-05-07T09:16:20;103157.44;;;11.19;42.83
76311;BME280;65120;59.304;18.294;2023-05-07T09:18:51;103155.69;;;11.20;42.54
76311;BME280;65120;59.304;18.294;2023-05-07T09:21:19;103150.50;;;11.21;43.02
76311;BME280;65120;59.304;18.294;2023-05-07T09:23:47;103148.78;;;11.23;42.44
76311;BME280;65120;59.304;18.294;2023-05-07T09:26:16;103145.31;;;11.24;42.57
76311;BME280;65120;59.304;18.294;2023-05-07T09:28:43;103152.31;;;11.25;42.74
76311;BME280;65120;59.304;18.294;2023-05-07T09:31:12;103155.84;;;11.29;42.65
76311;BME280;65120;59.304;18.294;2023-05-07T09:33:39;103147.94;;;11.26;42.61
76311;BME280;65120;59.304;18.294;2023-05-07T09:36:08;103155.84;;;11.29;42.82
76311;BME280;65120;59.304;18.294;2023-05-07T09:38:36;103151.47;;;11.30;42.65
76311;BME280;65120;59.304;18.294;2023-05-07T09:41:04;103148.03;;;11.32;43.01
76311;BME280;65120;59.304;18.294;2023-05-07T09:43:33;103153.31;;;11.34;42.62
76311;BME280;65120;59.304;18.294;2023-05-07T09:46:06;103148.94;;;11.34;42.38
76311;BME280;65120;59.304;18.294;2023-05-07T09:48:37;103144.59;;;11.33;42.68
76311;BME280;65120;59.304;18.294;2023-05-07T09:51:21;103148.13;;;11.38;42.86
76311;BME280;65120;59.304;18.294;2023-05-07T09:53:50;103151.66;;;11.40;43.01
76311;BME280;65120;59.304;18.294;2023-05-07T09:56:19;103149.91;;;11.39;42.58
76311;BME280;65120;59.304;18.294;2023-05-07T09:58:48;103142.03;;;11.36;42.80
76311;BME280;65120;59.304;18.294;2023-05-07T10:01:17;103156.91;;;11.40;42.83
76311;BME280;65120;59.304;18.294;2023-05-07T10:03:44;103145.56;;;11.40;42.95
76311;BME280;65120;59.304;18.294;2023-05-07T10:06:13;103149.09;;;11.42;42.65
76311;BME280;65120;59.304;18.294;2023-05-07T10:08:40;103155.19;;;11.42;42.77
76311;BME280;65120;59.304;18.294;2023-05-07T10:11:07;103151.66;;;11.40;43.00
76311;BME280;65120;59.304;18.294;2023-05-07T10:13:34;103139.41;;;11.38;42.51
76311;BME280;65120;59.304;18.294;2023-05-07T10:16:05;103140.28;;;11.37;42.36
76311;BME280;65120;59.304;18.294;2023-05-07T10:18:33;103145.41;;;11.31;42.23
76311;BME280;65120;59.304;18.294;2023-05-07T10:21:03;103143.50;;;11.20;41.71
76311;BME280;65120;59.304;18.294;2023-05-07T10:23:31;103145.06;;;11.11;42.21
76311;BME280;65120;59.304;18.294;2023-05-07T10:25:59;103139.75;;;11.06;41.61
76311;BME280;65120;59.304;18.294;2023-05-07T10:28:31;103140.53;;;10.99;42.35
76311;BME280;65120;59.304;18.294;2023-05-07T10:31:10;103126.50;;;10.95;42.56
76311;BME280;65120;59.304;18.294;2023-05-07T10:33:42;103134.34;;;10.95;42.55
76311;BME280;65120;59.304;18.294;2023-05-07T10:36:11;103129.09;;;10.94;42.53
76311;BME280;65120;59.304;18.294;2023-05-07T10:38:38;103140.38;;;10.91;42.21
76311;BME280;65120;59.304;18.294;2023-05-07T10:41:06;103136.84;;;10.89;42.05
76311;BME280;65120;59.304;18.294;2023-05-07T10:43:40;103138.53;;;10.86;42.30
76311;BME280;65120;59.304;18.294;2023-05-07T10:46:17;103137.53;;;10.79;42.32
76311;BME280;65120;59.304;18.294;2023-05-07T10:49:06;103128.72;;;10.74;42.61
76311;BME280;65120;59.304;18.294;2023-05-07T10:51:34;103123.44;;;10.71;42.62
76311;BME280;65120;59.304;18.294;2023-05-07T10:54:21;103120.78;;;10.69;42.52
76311;BME280;65120;59.304;18.294;2023-05-07T10:56:48;103128.63;;;10.68;42.53
76311;BME280;65120;59.304;18.294;2023-05-07T10:59:33;103127.69;;;10.66;42.93
76311;BME280;65120;59.304;18.294;2023-05-07T11:02:07;103130.22;;;10.61;42.71
76311;BME280;65120;59.304;18.294;2023-05-07T11:04:36;103123.19;;;10.58;42.94
76311;BME280;65120;59.304;18.294;2023-05-07T11:07:30;103128.38;;;10.55;42.69
76311;BME280;65120;59.304;18.294;2023-05-07T11:10:04;103124.81;;;10.50;42.62
76311;BME280;65120;59.304;18.294;2023-05-07T11:12:51;103127.38;;;10.47;42.90
76311;BME280;65120;59.304;18.294;2023-05-07T11:15:39;103132.50;;;10.44;42.89
76311;BME280;65120;59.304;18.294;2023-05-07T11:18:09;103127.28;;;10.44;43.37
76311;BME280;65120;59.304;18.294;2023-05-07T11:20:57;103129.88;;;10.44;42.89
76311;BME280;65120;59.304;18.294;2023-05-07T11:23:56;103121.16;;;10.44;43.43
76311;BME280;65120;59.304;18.294;2023-05-07T11:26:24;103122.91;;;10.42;43.42
76311;BME280;65120;59.304;18.294;2023-05-07T11:28:52;103131.50;;;10.38;43.10
76311;BME280;65120;59.304;18.294;2023-05-07T11:31:24;103122.75;;;10.35;43.28
76311;BME280;65120;59.304;18.294;2023-05-07T11:33:57;103121.00;;;10.34;43.70
76311;BME280;65120;59.304;18.294;2023-05-07T11:36:24;103121.03;;;10.36;43.61
76311;BME280;65120;59.304;18.294;2023-05-07T11:38:52;103119.19;;;10.32;43.15
76311;BME280;65120;59.304;18.294;2023-05-07T11:41:19;103120.00;;;10.28;43.14
76311;BME280;65120;59.304;18.294;2023-05-07T11:43:57;103122.53;;;10.25;43.29
76311;BME280;65120;59.304;18.294;2023-05-07T11:46:25;103115.50;;;10.22;43.70
76311;BME280;65120;59.304;18.294;2023-05-07T11:48:53;103117.19;;;10.20;43.28
76311;BME280;65120;59.304;18.294;2023-05-07T11:51:23;103113.69;;;10.20;43.48
76311;BME280;65120;59.304;18.294;2023-05-07T11:53:51;103111.09;;;10.20;43.54
76311;BME280;65120;59.304;18.294;2023-05-07T11:56:19;103112.84;;;10.21;43.25
76311;BME280;65120;59.304;18.294;2023-05-07T11:58:47;103114.63;;;10.22;43.56
76311;BME280;65120;59.304;18.294;2023-05-07T12:01:15;103106.78;;;10.22;43.65
76311;BME280;65120;59.304;18.294;2023-05-07T12:03:44;103112.91;;;10.24;43.52
76311;BME280;65120;59.304;18.294;2023-05-07T12:06:13;103102.41;;;10.21;44.01
76311;BME280;65120;59.304;18.294;2023-05-07T12:08:43;103100.66;;;10.20;43.71
76311;BME280;65120;59.304;18.294;2023-05-07T12:11:13;103102.41;;;10.21;43.20
76311;BME280;65120;59.304;18.294;2023-05-07T12:13:41;103105.88;;;10.20;42.95
76311;BME280;65120;59.304;18.294;2023-05-07T12:16:09;103103.28;;;10.21;43.39
76311;BME280;65120;59.304;18.294;2023-05-07T12:18:37;103100.66;;;10.21;42.52
76311;BME280;65120;59.304;18.294;2023-05-07T12:21:05;103101.53;;;10.20;42.67
76311;BME280;65120;59.304;18.294;2023-05-07T12:23:34;103098.91;;;10.20;42.71
76311;BME280;65120;59.304;18.294;2023-05-07T12:26:02;103098.03;;;10.20;42.49
76311;BME280;65120;59.304;18.294;2023-05-07T12:28:36;103096.28;;;10.20;42.33
76311;BME280;65120;59.304;18.294;2023-05-07T12:31:04;103091.88;;;10.18;42.41
76311;BME280;65120;59.304;18.294;2023-05-07T12:33:31;103099.72;;;10.18;42.06
76311;BME280;65120;59.304;18.294;2023-05-07T12:35:58;103091.00;;;10.17;42.45
76311;BME280;65120;59.304;18.294;2023-05-07T12:38:34;103091.88;;;10.18;42.13
76311;BME280;65120;59.304;18.294;2023-05-07T12:41:03;103089.31;;;10.19;42.51
76311;BME280;65120;59.304;18.294;2023-05-07T12:43:30;103090.19;;;10.20;42.22
76311;BME280;65120;59.304;18.294;2023-05-07T12:46:00;103090.19;;;10.20;42.37
76311;BME280;65120;59.304;18.294;2023-05-07T12:48:28;103090.19;;;10.20;42.36
76311;BME280;65120;59.304;18.294;2023-05-07T12:50:55;103098.03;;;10.20;41.91